createdAt,value
2018-07-19T00:02:12.648Z,19.37
2018-07-19T00:04:41.684Z,19.27
2018-07-19T00:07:10.769Z,19.27
2018-07-19T00:09:39.821Z,19.25
2018-07-19T00:12:08.897Z,19.18
2018-07-19T00:14:38.025Z,19.12
2018-07-19T00:17:07.563Z,19.04
2018-07-19T00:19:36.725Z,19.07
2018-07-19T00:22:05.805Z,19.08
2018-07-19T00:24:34.889Z,18.88
2018-07-19T00:27:04.059Z,18.79
2018-07-19T00:29:33.141Z,18.71
2018-07-19T00:32:02.209Z,18.77
2018-07-19T00:34:31.281Z,18.71
2018-07-19T00:37:00.328Z,18.73
2018-07-19T00:39:29.401Z,18.78
2018-07-19T00:41:58.478Z,18.77
2018-07-19T00:44:27.561Z,18.75
2018-07-19T00:46:56.612Z,18.69
2018-07-19T00:49:25.681Z,18.64
2018-07-19T00:51:54.816Z,18.69
2018-07-19T00:54:23.897Z,18.63
2018-07-19T00:56:52.940Z,18.59
2018-07-19T00:59:22.025Z,18.54
2018-07-19T01:01:51.093Z,18.49
2018-07-19T01:04:20.153Z,18.43
2018-07-19T01:06:49.217Z,18.45
2018-07-19T01:09:18.319Z,18.42
2018-07-19T01:11:47.368Z,18.43
2018-07-19T01:14:16.492Z,18.39
2018-07-19T01:16:45.594Z,18.43
2018-07-19T01:19:14.676Z,18.36
2018-07-19T01:21:43.741Z,18.34
2018-07-19T01:24:12.873Z,18.38
2018-07-19T01:26:41.961Z,18.21
2018-07-19T01:29:11.088Z,18.26
2018-07-19T01:31:40.410Z,18.21
2018-07-19T01:34:09.468Z,18.25
2018-07-19T01:36:38.572Z,18.18
2018-07-19T01:39:09.048Z,18.27
2018-07-19T01:42:18.626Z,18.40
2018-07-19T01:44:47.692Z,18.15
2018-07-19T01:47:16.764Z,17.98
2018-07-19T01:49:46.556Z,18.01
2018-07-19T01:52:15.924Z,17.94
2018-07-19T01:54:45.013Z,17.88
2018-07-19T01:57:15.236Z,17.90
2018-07-19T01:59:44.988Z,17.91
2018-07-19T02:02:14.456Z,17.82
2018-07-19T02:04:43.868Z,17.89
2018-07-19T02:07:12.957Z,17.90
2018-07-19T02:09:42.042Z,17.85
2018-07-19T02:12:11.132Z,17.86
2018-07-19T02:14:40.216Z,17.84
2018-07-19T02:17:09.321Z,17.90
2018-07-19T02:19:38.391Z,17.90
2018-07-19T02:22:07.542Z,17.79
2018-07-19T02:24:36.616Z,17.56
2018-07-19T02:27:05.770Z,17.82
2018-07-19T02:29:34.900Z,17.89
2018-07-19T02:32:03.988Z,17.90
2018-07-19T02:34:33.046Z,18.07
2018-07-19T02:37:02.148Z,18.02
2018-07-19T02:39:31.281Z,18.02
2018-07-19T02:42:00.355Z,17.87
2018-07-19T02:44:29.427Z,17.78
2018-07-19T02:46:58.589Z,17.82
2018-07-19T02:49:27.659Z,17.81
2018-07-19T02:51:56.782Z,17.74
2018-07-19T02:54:25.849Z,17.74
2018-07-19T02:56:54.927Z,17.53
2018-07-19T02:59:24.001Z,17.53
2018-07-19T03:01:53.147Z,17.57
2018-07-19T03:04:22.225Z,17.54
2018-07-19T03:06:51.325Z,17.50
2018-07-19T03:09:20.409Z,17.65
2018-07-19T03:11:49.558Z,17.59
2018-07-19T03:14:18.728Z,17.61
2018-07-19T03:16:47.808Z,17.66
2018-07-19T03:19:16.880Z,17.73
2018-07-19T03:21:45.959Z,17.72
2018-07-19T03:24:16.133Z,17.79
2018-07-19T03:26:45.192Z,17.73
2018-07-19T03:29:14.304Z,17.58
2018-07-19T03:31:43.337Z,17.53
2018-07-19T03:34:12.420Z,17.48
2018-07-19T03:36:41.488Z,17.46
2018-07-19T03:39:11.427Z,17.29
2018-07-19T03:41:40.766Z,17.27
2018-07-19T03:44:09.836Z,17.22
2018-07-19T03:46:38.897Z,17.20
2018-07-19T03:49:08.005Z,17.18
2018-07-19T03:51:37.106Z,17.34
2018-07-19T03:54:06.188Z,17.43
2018-07-19T03:56:35.260Z,17.49
2018-07-19T03:59:04.352Z,17.48
2018-07-19T04:01:33.518Z,17.46
2018-07-19T04:04:02.573Z,17.52
2018-07-19T04:06:31.670Z,17.50
2018-07-19T04:09:00.730Z,17.54
2018-07-19T04:11:29.893Z,17.44
2018-07-19T04:13:59.049Z,17.45
2018-07-19T04:16:28.197Z,17.51
2018-07-19T04:18:57.269Z,17.58
2018-07-19T04:21:26.337Z,17.61
2018-07-19T04:23:55.446Z,17.73
2018-07-19T04:26:24.533Z,17.84
2018-07-19T04:28:53.604Z,17.87
2018-07-19T04:31:22.708Z,17.87
2018-07-19T04:33:51.797Z,17.83
2018-07-19T04:36:20.924Z,17.88
2018-07-19T04:38:49.968Z,17.86
2018-07-19T04:41:19.022Z,17.88
2018-07-19T04:43:48.108Z,17.89
2018-07-19T04:46:17.167Z,17.86
2018-07-19T04:48:46.268Z,17.78
2018-07-19T04:51:15.364Z,17.85
2018-07-19T04:53:44.626Z,17.83
2018-07-19T04:56:13.689Z,17.86
2018-07-19T04:58:42.801Z,17.82
2018-07-19T05:01:11.977Z,17.90
2018-07-19T05:03:41.061Z,18.05
2018-07-19T05:06:10.156Z,18.14
2018-07-19T05:08:39.306Z,18.22
2018-07-19T05:11:08.398Z,18.24
2018-07-19T05:13:37.562Z,18.20
2018-07-19T05:16:07.696Z,18.27
2018-07-19T05:18:37.255Z,18.42
2018-07-19T05:21:06.325Z,18.57
2018-07-19T05:23:35.473Z,18.59
2018-07-19T05:26:04.525Z,18.78
2018-07-19T05:28:33.977Z,18.77
2018-07-19T05:31:03.115Z,18.85
2018-07-19T05:33:32.203Z,18.96
2018-07-19T05:36:01.269Z,18.90
2018-07-19T05:38:30.416Z,19.17
2018-07-19T05:41:00.398Z,19.17
2018-07-19T05:43:29.478Z,19.18
2018-07-19T05:45:58.603Z,19.24
2018-07-19T05:48:27.727Z,19.29
2018-07-19T05:50:56.803Z,19.29
2018-07-19T05:53:25.893Z,19.33
2018-07-19T05:55:55.538Z,19.38
2018-07-19T05:58:24.648Z,19.36
2018-07-19T06:00:54.305Z,19.47
2018-07-19T06:03:23.388Z,19.49
2018-07-19T06:05:52.493Z,19.53
2018-07-19T06:08:21.619Z,19.55
2018-07-19T06:10:50.716Z,19.58
2018-07-19T06:13:19.758Z,19.61
2018-07-19T06:15:48.929Z,19.69
2018-07-19T06:18:18.009Z,19.66
2018-07-19T06:20:47.092Z,19.64
2018-07-19T06:23:16.165Z,19.77
2018-07-19T06:25:45.297Z,19.77
2018-07-19T06:28:14.368Z,19.81
2018-07-19T06:30:43.520Z,19.88
2018-07-19T06:33:12.591Z,19.88
2018-07-19T06:35:41.767Z,19.94
2018-07-19T06:38:10.820Z,20.05
2018-07-19T06:40:39.892Z,20.06
2018-07-19T06:43:08.978Z,20.18
2018-07-19T06:45:38.089Z,20.18
2018-07-19T06:48:07.172Z,20.18
2018-07-19T06:50:36.280Z,20.33
2018-07-19T06:53:06.008Z,20.39
2018-07-19T06:55:35.340Z,20.45
2018-07-19T06:58:04.675Z,20.52
2018-07-19T07:00:33.746Z,20.59
2018-07-19T07:03:03.206Z,20.59
2018-07-19T07:05:32.342Z,20.69
2018-07-19T07:08:01.422Z,20.81
2018-07-19T07:10:30.479Z,20.97
2018-07-19T07:12:59.573Z,21.08
2018-07-19T07:15:28.666Z,21.10
2018-07-19T07:17:58.005Z,20.98
2018-07-19T07:20:27.049Z,21.09
2018-07-19T07:22:56.276Z,21.13
2018-07-19T07:25:25.294Z,21.18
2018-07-19T07:27:54.402Z,21.02
2018-07-19T07:30:23.477Z,21.09
2018-07-19T07:32:52.633Z,21.26
2018-07-19T07:35:21.685Z,21.28
2018-07-19T07:37:50.880Z,21.29
2018-07-19T07:40:19.961Z,21.45
2018-07-19T07:42:49.037Z,21.44
2018-07-19T07:45:18.168Z,21.42
2018-07-19T07:47:47.192Z,21.42
2018-07-19T07:50:16.288Z,21.41
2018-07-19T07:52:45.400Z,21.48
2018-07-19T07:55:14.476Z,21.67
2018-07-19T07:57:44.016Z,21.62
2018-07-19T08:00:13.073Z,21.65
2018-07-19T08:02:42.120Z,21.66
2018-07-19T08:05:11.360Z,21.96
2018-07-19T08:07:40.422Z,21.95
2018-07-19T08:10:09.818Z,21.93
2018-07-19T08:12:38.865Z,21.91
2018-07-19T08:15:08.197Z,22.04
2018-07-19T08:17:37.260Z,22.14
2018-07-19T08:20:06.704Z,22.22
2018-07-19T08:22:35.763Z,22.00
2018-07-19T08:25:05.090Z,22.30
2018-07-19T08:27:34.169Z,22.18
2018-07-19T08:30:03.271Z,22.21
2018-07-19T08:32:32.348Z,22.31
2018-07-19T08:35:01.436Z,22.30
2018-07-19T08:37:30.484Z,22.44
2018-07-19T08:40:06.410Z,22.67
2018-07-19T08:42:35.476Z,22.77
2018-07-19T08:45:04.901Z,22.65
2018-07-19T08:47:34.035Z,22.75
2018-07-19T08:50:03.098Z,22.81
2018-07-19T08:52:32.224Z,22.87
2018-07-19T08:55:01.289Z,22.80
2018-07-19T08:57:30.352Z,22.77
2018-07-19T08:59:59.412Z,23.07
2018-07-19T09:02:28.475Z,22.99
2018-07-19T09:04:57.530Z,22.90
2018-07-19T09:07:26.607Z,22.99
2018-07-19T09:09:55.655Z,23.20
2018-07-19T09:12:24.756Z,23.06
2018-07-19T09:14:53.796Z,23.19
2018-07-19T09:17:22.976Z,23.10
2018-07-19T09:19:52.147Z,23.21
2018-07-19T09:22:21.237Z,23.16
2018-07-19T09:24:50.293Z,23.07
2018-07-19T09:27:20.467Z,23.14
2018-07-19T09:29:49.681Z,23.22
2018-07-19T09:32:18.907Z,23.41
2018-07-19T09:34:47.969Z,23.46
2018-07-19T09:37:17.153Z,23.50
2018-07-19T09:39:46.321Z,23.53
2018-07-19T09:42:15.396Z,23.67
2018-07-19T09:44:44.557Z,23.62
2018-07-19T09:47:13.617Z,23.55
2018-07-19T09:49:42.730Z,23.64
2018-07-19T09:52:11.784Z,23.73
2018-07-19T09:54:55.566Z,23.76
2018-07-19T09:57:24.776Z,23.63
2018-07-19T09:59:53.890Z,23.78
2018-07-19T10:02:22.956Z,23.91
2018-07-19T10:04:52.076Z,23.84
2018-07-19T10:07:21.469Z,23.93
2018-07-19T10:09:50.672Z,24.04
2018-07-19T10:12:19.958Z,24.15
2018-07-19T10:14:49.392Z,24.32
2018-07-19T10:17:18.775Z,24.13
2018-07-19T10:19:47.786Z,24.31
2018-07-19T10:22:16.842Z,24.41
2018-07-19T10:24:45.900Z,24.54
2018-07-19T10:27:15.020Z,24.56
2018-07-19T10:29:44.129Z,24.54
2018-07-19T10:32:13.320Z,24.56
2018-07-19T10:34:42.266Z,24.79
2018-07-19T10:37:11.505Z,24.82
2018-07-19T10:39:40.574Z,24.49
2018-07-19T10:42:10.616Z,24.66
2018-07-19T10:44:39.679Z,24.51
2018-07-19T10:47:08.778Z,24.56
2018-07-19T10:49:37.825Z,24.45
2018-07-19T10:52:06.946Z,24.70
2018-07-19T10:54:35.989Z,24.82
2018-07-19T10:57:06.027Z,24.96
2018-07-19T10:59:35.082Z,25.03
2018-07-19T11:02:04.146Z,25.07
2018-07-19T11:04:33.434Z,25.38
2018-07-19T11:07:02.565Z,25.35
2018-07-19T11:09:31.711Z,25.50
2018-07-19T11:12:00.883Z,25.42
2018-07-19T11:14:29.897Z,25.52
2018-07-19T11:16:58.989Z,25.51
2018-07-19T11:19:28.145Z,25.81
2018-07-19T11:21:57.189Z,25.78
2018-07-19T11:24:26.262Z,25.35
2018-07-19T11:26:55.369Z,25.57
2018-07-19T11:29:24.451Z,25.75
2018-07-19T11:32:00.169Z,25.86
2018-07-19T11:34:29.205Z,26.25
2018-07-19T11:36:58.291Z,26.42
2018-07-19T11:39:27.382Z,26.57
2018-07-19T11:41:57.450Z,26.48
2018-07-19T11:44:26.597Z,26.42
2018-07-19T11:46:55.657Z,26.49
2018-07-19T11:49:24.741Z,26.72
2018-07-19T11:51:53.793Z,26.97
2018-07-19T11:54:22.888Z,26.88
2018-07-19T11:56:51.966Z,27.17
2018-07-19T11:59:21.168Z,27.19
2018-07-19T12:01:50.411Z,27.39
2018-07-19T12:04:19.612Z,27.59
2018-07-19T12:06:48.932Z,27.35
2018-07-19T12:09:18.073Z,27.57
2018-07-19T12:11:47.255Z,27.87
2018-07-19T12:14:16.553Z,28.14
2018-07-19T12:16:45.628Z,28.31
2018-07-19T12:19:14.744Z,28.61
2018-07-19T12:21:43.924Z,28.75
2018-07-19T12:24:13.058Z,29.23
2018-07-19T12:26:42.142Z,29.44
2018-07-19T12:29:11.200Z,29.79
2018-07-19T12:31:40.230Z,29.99
2018-07-19T12:34:09.329Z,29.53
2018-07-19T12:36:38.415Z,29.75
2018-07-19T12:39:10.030Z,30.27
2018-07-19T12:41:39.148Z,30.55
2018-07-19T12:44:08.596Z,31.00
2018-07-19T12:46:37.822Z,31.13
2018-07-19T12:49:07.750Z,31.47
2018-07-19T12:51:37.308Z,31.57
2018-07-19T12:54:06.601Z,30.61
2018-07-19T12:56:35.674Z,30.74
2018-07-19T12:59:04.727Z,31.22
2018-07-19T13:01:33.774Z,32.02
2018-07-19T13:04:02.922Z,32.31
2018-07-19T13:06:32.036Z,32.05
2018-07-19T13:09:01.244Z,30.85
2018-07-19T13:11:30.341Z,29.78
2018-07-19T13:14:00.297Z,29.34
2018-07-19T13:16:29.473Z,27.95
2018-07-19T13:18:58.653Z,29.20
2018-07-19T13:21:27.959Z,30.57
2018-07-19T13:23:57.052Z,31.22
2018-07-19T13:26:26.263Z,32.11
2018-07-19T13:28:55.375Z,32.24
2018-07-19T13:31:24.447Z,32.73
2018-07-19T13:33:53.543Z,32.68
2018-07-19T13:36:22.785Z,32.76
2018-07-19T13:38:51.807Z,32.65
2018-07-19T13:41:20.869Z,32.76
2018-07-19T13:43:49.916Z,33.08
2018-07-19T13:46:19.135Z,33.22
2018-07-19T13:48:48.215Z,32.89
2018-07-19T13:51:17.362Z,33.16
2018-07-19T13:53:57.766Z,33.51
2018-07-19T13:56:26.880Z,33.97
2018-07-19T13:58:56.879Z,33.95
2018-07-19T14:01:26.913Z,33.94
2018-07-19T14:03:56.034Z,34.30
2018-07-19T14:06:25.254Z,33.58
2018-07-19T14:08:54.326Z,33.11
2018-07-19T14:11:23.440Z,34.32
2018-07-19T14:13:52.681Z,34.56
2018-07-19T14:16:21.722Z,34.97
2018-07-19T14:18:50.876Z,35.02
2018-07-19T14:21:20.047Z,35.18
2018-07-19T14:23:49.197Z,35.36
2018-07-19T14:26:18.270Z,35.24
2018-07-19T14:28:47.358Z,35.66
2018-07-19T14:31:16.462Z,35.51
2018-07-19T14:33:45.642Z,35.14
2018-07-19T14:36:14.742Z,35.03
2018-07-19T14:38:43.792Z,35.38
2018-07-19T14:41:12.819Z,35.40
2018-07-19T14:43:41.938Z,35.64
2018-07-19T14:46:11.029Z,35.35
2018-07-19T14:48:40.113Z,35.05
2018-07-19T14:51:09.743Z,34.95
2018-07-19T14:53:38.922Z,35.51
2018-07-19T14:56:08.633Z,34.99
2018-07-19T14:58:37.729Z,34.86
2018-07-19T15:01:07.042Z,34.52
2018-07-19T15:03:36.330Z,33.99
2018-07-19T15:06:05.418Z,33.29
2018-07-19T15:08:34.489Z,34.44
2018-07-19T15:11:03.559Z,35.15
2018-07-19T15:13:32.659Z,35.12
2018-07-19T15:16:01.668Z,35.03
2018-07-19T15:18:30.893Z,35.29
2018-07-19T15:21:00.001Z,35.58
2018-07-19T15:23:29.038Z,35.31
2018-07-19T15:25:58.430Z,35.07
2018-07-19T15:28:27.788Z,34.92
2018-07-19T15:30:57.160Z,34.76
2018-07-19T15:33:26.296Z,34.75
2018-07-19T15:35:55.380Z,34.75
2018-07-19T15:38:24.462Z,34.25
2018-07-19T15:40:53.520Z,33.87
2018-07-19T15:43:22.560Z,34.31
2018-07-19T15:45:51.674Z,34.57
2018-07-19T15:48:20.710Z,34.54
2018-07-19T15:50:49.762Z,34.71
2018-07-19T15:53:18.846Z,34.69
2018-07-19T15:55:47.934Z,34.50
2018-07-19T15:58:17.078Z,34.55
2018-07-19T16:00:46.186Z,34.39
2018-07-19T16:03:15.322Z,34.78
2018-07-19T16:05:44.469Z,34.25
2018-07-19T16:08:13.621Z,34.20
2018-07-19T16:10:42.688Z,34.13
2018-07-19T16:13:11.765Z,33.71
2018-07-19T16:15:40.797Z,33.70
2018-07-19T16:18:09.920Z,33.40
2018-07-19T16:20:39.026Z,33.78
2018-07-19T16:23:08.097Z,33.98
2018-07-19T16:25:37.157Z,34.07
2018-07-19T16:28:06.415Z,34.26
2018-07-19T16:30:35.447Z,33.90
2018-07-19T16:33:04.664Z,32.89
2018-07-19T16:35:33.748Z,33.04
2018-07-19T16:38:02.887Z,33.14
2018-07-19T16:40:31.955Z,32.83
2018-07-19T16:43:01.022Z,33.02
2018-07-19T16:45:30.113Z,33.19
2018-07-19T16:47:59.485Z,32.87
2018-07-19T16:50:28.577Z,33.09
2018-07-19T16:52:57.728Z,33.05
2018-07-19T16:55:26.781Z,32.89
2018-07-19T16:57:56.009Z,32.70
2018-07-19T17:00:25.606Z,32.82
2018-07-19T17:02:54.591Z,32.67
2018-07-19T17:05:23.722Z,32.56
2018-07-19T17:07:52.809Z,32.72
2018-07-19T17:10:22.025Z,32.53
2018-07-19T17:12:51.116Z,32.36
2018-07-19T17:15:20.310Z,32.31
2018-07-19T17:17:49.508Z,32.37
2018-07-19T17:20:18.615Z,32.37
2018-07-19T17:22:47.688Z,32.09
2018-07-19T17:25:16.884Z,31.80
2018-07-19T17:27:46.022Z,31.69
2018-07-19T17:30:15.198Z,31.51
2018-07-19T17:32:44.282Z,31.34
2018-07-19T17:35:13.396Z,31.11
2018-07-19T17:37:42.513Z,30.31
2018-07-19T17:40:11.569Z,30.25
2018-07-19T17:42:40.665Z,30.07
2018-07-19T17:45:09.967Z,29.85
2018-07-19T17:47:39.024Z,29.72
2018-07-19T17:50:08.491Z,29.34
2018-07-19T17:52:37.582Z,29.16
2018-07-19T17:55:06.653Z,28.98
2018-07-19T17:57:35.862Z,28.86
2018-07-19T18:00:05.249Z,28.89
2018-07-19T18:02:34.365Z,28.63
2018-07-19T18:05:03.552Z,28.47
2018-07-19T18:07:32.680Z,28.41
2018-07-19T18:10:01.819Z,28.07
2018-07-19T18:12:30.940Z,28.14
2018-07-19T18:15:00.138Z,28.09
2018-07-19T18:17:29.355Z,27.99
2018-07-19T18:19:58.484Z,27.98
2018-07-19T18:22:27.708Z,27.71
2018-07-19T18:24:56.788Z,27.58
2018-07-19T18:27:25.870Z,27.46
2018-07-19T18:29:55.031Z,27.42
2018-07-19T18:32:24.222Z,27.45
2018-07-19T18:34:53.313Z,27.26
2018-07-19T18:37:22.466Z,27.11
2018-07-19T18:39:51.597Z,27.03
2018-07-19T18:42:20.688Z,27.07
2018-07-19T18:44:49.921Z,27.03
2018-07-19T18:47:19.065Z,26.92
2018-07-19T18:49:48.185Z,26.79
2018-07-19T18:52:17.350Z,26.83
2018-07-19T18:57:21.752Z,26.65
2018-07-19T18:59:50.866Z,26.60
2018-07-19T19:02:19.951Z,26.42
2018-07-19T19:04:49.079Z,26.37
2018-07-19T19:07:18.168Z,26.18
2018-07-19T19:09:47.303Z,25.98
2018-07-19T19:12:16.482Z,25.85
2018-07-19T19:14:45.578Z,25.59
2018-07-19T19:17:14.701Z,25.58
2018-07-19T19:19:43.898Z,25.54
2018-07-19T19:22:13.289Z,25.39
2018-07-19T19:24:42.377Z,25.21
2018-07-19T19:27:11.465Z,25.24
2018-07-19T19:29:40.541Z,24.92
2018-07-19T19:32:09.594Z,24.87
2018-07-19T19:34:45.100Z,24.68
2018-07-19T19:37:14.140Z,24.44
2018-07-19T19:39:44.102Z,24.35
2018-07-19T19:42:13.182Z,24.37
2018-07-19T19:44:42.253Z,24.29
2018-07-19T19:47:11.702Z,24.18
2018-07-19T19:49:40.803Z,24.06
2018-07-19T19:52:09.917Z,23.87
2018-07-19T19:54:38.960Z,23.89
2018-07-19T19:57:08.060Z,23.74
2018-07-19T19:59:37.127Z,23.66
2018-07-19T20:02:12.108Z,23.56
2018-07-19T20:04:41.766Z,23.56
2018-07-19T20:07:10.990Z,23.46
2018-07-19T20:09:40.057Z,23.43
2018-07-19T20:12:09.225Z,23.26
2018-07-19T20:14:38.336Z,23.25
2018-07-19T20:17:07.470Z,23.22
2018-07-19T20:19:36.624Z,23.15
2018-07-19T20:22:05.728Z,23.13
2018-07-19T20:24:34.755Z,23.07
2018-07-19T20:27:03.898Z,22.96
2018-07-19T20:29:32.993Z,22.81
2018-07-19T20:32:02.098Z,22.81
2018-07-19T20:34:31.249Z,22.71
2018-07-19T20:37:00.281Z,22.69
2018-07-19T20:39:29.681Z,22.63
2018-07-19T20:41:58.793Z,22.58
2018-07-19T20:44:27.881Z,22.46
2018-07-19T20:46:57.089Z,22.35
2018-07-19T20:49:26.199Z,22.27
2018-07-19T20:51:55.423Z,22.23
2018-07-19T20:54:24.541Z,22.13
2018-07-19T20:56:53.625Z,22.07
2018-07-19T20:59:22.885Z,22.06
2018-07-19T21:01:52.001Z,22.00
2018-07-19T21:04:21.139Z,22.02
2018-07-19T21:06:50.205Z,21.87
2018-07-19T21:09:19.499Z,21.86
2018-07-19T21:11:48.583Z,21.61
2018-07-19T21:14:17.669Z,21.60
2018-07-19T21:16:46.808Z,21.54
2018-07-19T21:19:15.921Z,21.59
2018-07-19T21:21:45.009Z,21.52
2018-07-19T21:24:13.928Z,21.51
2018-07-19T21:26:43.009Z,21.47
2018-07-19T21:29:12.098Z,21.38
2018-07-19T21:31:41.140Z,21.43
2018-07-19T21:34:10.331Z,21.39
2018-07-19T21:36:39.384Z,21.26
2018-07-19T21:39:10.105Z,21.26
2018-07-19T21:41:39.680Z,21.19
2018-07-19T21:44:09.272Z,21.21
2018-07-19T21:46:38.396Z,21.11
2018-07-19T21:49:07.469Z,21.04
2018-07-19T21:51:36.562Z,20.96
2018-07-19T21:54:05.746Z,20.94
2018-07-19T21:56:34.858Z,20.95
2018-07-19T21:59:03.956Z,20.84
2018-07-19T22:01:33.050Z,20.86
2018-07-19T22:04:02.119Z,20.77
2018-07-19T22:06:31.225Z,20.74
2018-07-19T22:09:00.326Z,20.69
2018-07-19T22:11:29.370Z,20.64
2018-07-19T22:13:58.517Z,20.69
2018-07-19T22:16:27.654Z,20.73
2018-07-19T22:18:56.719Z,20.55
2018-07-19T22:21:25.901Z,20.55
2018-07-19T22:23:54.983Z,20.43
2018-07-19T22:26:24.088Z,20.42
2018-07-19T22:28:53.117Z,20.36
2018-07-19T22:31:22.248Z,20.35
2018-07-19T22:33:51.564Z,20.36
2018-07-19T22:36:20.671Z,20.31
2018-07-19T22:38:49.715Z,20.27
2018-07-19T22:41:18.819Z,20.17
2018-07-19T22:43:47.869Z,20.14
2018-07-19T22:46:16.928Z,20.09
2018-07-19T22:48:46.044Z,20.07
2018-07-19T22:51:15.141Z,20.18
2018-07-19T22:53:44.212Z,20.11
2018-07-19T22:56:13.402Z,19.99
2018-07-19T22:58:42.494Z,19.95
2018-07-19T23:01:11.602Z,20.04
2018-07-19T23:03:40.692Z,19.93
2018-07-19T23:06:09.768Z,19.77
2018-07-19T23:08:38.846Z,19.74
2018-07-19T23:11:07.905Z,19.82
2018-07-19T23:13:37.232Z,19.72
2018-07-19T23:16:06.328Z,19.70
2018-07-19T23:18:35.425Z,19.71
2018-07-19T23:21:04.514Z,19.72
2018-07-19T23:23:33.567Z,19.67
2018-07-19T23:26:02.720Z,19.56
2018-07-19T23:28:31.801Z,19.74
2018-07-19T23:31:00.928Z,19.67
2018-07-19T23:33:30.185Z,19.47
2018-07-19T23:36:05.164Z,19.37
2018-07-19T23:39:39.436Z,19.46
2018-07-19T23:42:18.821Z,19.41
2018-07-19T23:44:57.972Z,19.40
2018-07-19T23:47:30.361Z,19.35
2018-07-19T23:49:59.445Z,19.34
2018-07-19T23:52:28.565Z,19.36
2018-07-19T23:54:57.669Z,19.27
2018-07-19T23:57:26.753Z,19.19
2018-07-19T23:59:55.838Z,19.17
